CheckWX is a tool to help pilots better visualize weather data.  It is not intended as a substitute for an official pre-flight weather briefing.

01:29:38 UTC

EDHL METAR
Lübeck Blankensee Airport
Lübeck, Germany
Current

7 hours ago

EDHL 051820Z 22010KT 7000 BKN008 04/02 Q1014
Observed
Dec-5 @ 18:20 UTC
Wind
  • 220° at 10 KTS
Visibility
7,000 meters
Flight Rules
IFR
Cloud Levels
  • Broken at 800' AGL
Temperature
C / 39°F
Dewpoint
C / 36°F
Humidity
87%
Altimeter
29.94" Hg
Pressure
1013.92 hPa
Previous

8 hours ago

EDHL 051750Z 22010KT 9000 OVC008 03/02 Q1014
Observed
Dec-5 @ 17:50 UTC
Wind
  • 220° at 10 KTS
Visibility
9,000 meters
Flight Rules
IFR
Cloud Levels
  • Overcast at 800' AGL
Temperature
C / 37°F
Dewpoint
C / 36°F
Humidity
93%
Altimeter
29.94" Hg
Pressure
1013.92 hPa
Previous

8 hours ago

EDHL 051720Z 23011KT 9999 OVC010 03/01 Q1015
Observed
Dec-5 @ 17:20 UTC
Wind
  • 230° at 11 KTS
Visibility
10,000+ meters
Flight Rules
MVFR
Cloud Levels
  • Overcast at 1,000' AGL
Temperature
C / 37°F
Dewpoint
C / 34°F
Humidity
87%
Altimeter
29.97" Hg
Pressure
1014.92 hPa